Time;durP1;ratioP1;P1;durP2;ratioP2;P2;SDS_P1;SDS_P2;PMS_P1;PMS_P2;Temp;Humidity;BMP_temperature;BMP_pressure;BME280_temperature;BME280_humidity;BME280_pressure;Samples;Min_cycle;Max_cycle;Signal;HPM_P1;HPM_P2
2023/08/12 00:02:25;;;;;;;5.18;4.50;;;;;;;22.31;52.70;99872.66;10381869;28;20236;-67
2023/08/12 00:07:27;;;;;;;5.45;4.90;;;;;;;20.41;56.33;99916.63;10385191;28;20240;-67
2023/08/12 00:12:29;;;;;;;7.82;4.90;;;;;;;20.98;55.11;99887.56;10393064;28;20347;-69
2023/08/12 00:17:31;;;;;;;8.13;4.15;;;;;;;22.64;51.41;99897.19;10394541;28;20316;-68
2023/08/12 00:22:32;;;;;;;7.10;4.47;;;;;;;22.92;50.90;99906.91;10395756;28;20241;-67
2023/08/12 00:27:34;;;;;;;5.70;3.88;;;;;;;24.80;47.43;99917.72;10392403;28;20331;-70
2023/08/12 00:32:36;;;;;;;5.53;4.35;;;;;;;24.36;47.76;99948.38;10393504;28;20240;-70
2023/08/12 00:37:38;;;;;;;8.50;4.13;;;;;;;21.81;53.60;99958.28;10391929;28;20232;-68
2023/08/12 00:42:40;;;;;;;6.95;4.20;;;;;;;22.35;52.77;99894.78;10392154;28;20987;-68
2023/08/12 00:47:42;;;;;;;7.60;4.07;;;;;;;22.28;52.26;99918.72;10394019;28;20707;-68
2023/08/12 00:52:44;;;;;;;4.95;4.32;;;;;;;23.70;49.91;99913.53;10387407;28;20239;-70
2023/08/12 00:57:47;;;;;;;6.75;4.35;;;;;;;23.12;50.70;99963.53;10387581;28;20221;-68
2023/08/12 01:02:48;;;;;;;5.75;4.20;;;;;;;24.50;48.42;99929.50;10385598;28;20290;-68
2023/08/12 01:07:53;;;;;;;5.82;4.22;;;;;;;23.43;50.36;99978.16;10390485;28;20240;-68
2023/08/12 01:13:20;;;;;;;6.55;4.65;;;;;;;23.20;50.55;99976.69;10385681;28;20232;-68
2023/08/12 01:18:24;;;;;;;7.70;4.63;;;;;;;22.57;51.20;99986.59;10385890;28;20952;-68
2023/08/12 01:23:26;;;;;;;6.85;5.28;;;;;;;23.76;49.45;99924.22;10388753;28;20324;-70
2023/08/12 01:28:28;;;;;;;5.18;4.25;;;;;;;24.28;48.34;99936.06;10382314;28;20228;-67
2023/08/12 01:34:37;;;;;;;6.85;4.30;;;;;;;23.68;48.98;99982.09;10388487;28;20236;-67
2023/08/12 01:39:41;;;;;;;5.35;4.15;;;;;;;23.54;49.59;99948.97;10321283;28;20244;-67
2023/08/12 01:44:42;;;;;;;6.80;4.88;;;;;;;23.69;49.60;99959.16;10343207;28;20233;-67
2023/08/12 01:49:44;;;;;;;6.18;4.20;;;;;;;24.16;48.95;99960.13;10345140;28;20217;-67
2023/08/12 01:54:46;;;;;;;4.75;4.22;;;;;;;23.87;49.31;99987.06;10342754;28;20226;-70
2023/08/12 01:59:48;;;;;;;5.93;4.95;;;;;;;22.86;52.30;99897.88;10341670;28;20202;-69
2023/08/12 02:04:50;;;;;;;6.28;5.28;;;;;;;21.87;53.83;99948.28;10343447;28;20241;-70
2023/08/12 02:09:51;;;;;;;8.52;5.60;;;;;;;23.07;51.00;99930.75;10387442;28;20252;-67
2023/08/12 02:14:53;;;;;;;5.55;4.80;;;;;;;22.14;53.80;99927.31;10387330;28;20232;-69
2023/08/12 02:19:55;;;;;;;6.80;4.43;;;;;;;22.82;52.39;99902.22;10388434;28;20732;-67
2023/08/12 02:24:57;;;;;;;5.63;4.70;;;;;;;22.77;51.94;99962.19;10388799;28;20793;-69
2023/08/12 02:29:59;;;;;;;5.28;4.70;;;;;;;22.72;52.56;99943.06;10385180;28;20835;-69
2023/08/12 02:35:00;;;;;;;8.05;5.10;;;;;;;22.09;53.52;99967.31;10382617;28;20290;-69
2023/08/12 02:40:04;;;;;;;5.93;5.18;;;;;;;23.14;51.76;99950.44;10383395;28;20864;-69
2023/08/12 02:45:06;;;;;;;5.68;4.72;;;;;;;23.04;52.12;99920.34;10386242;28;20252;-67
2023/08/12 02:50:08;;;;;;;7.38;4.93;;;;;;;23.80;51.50;99888.97;10402144;28;20237;-67
2023/08/12 02:55:11;;;;;;;5.75;4.80;;;;;;;22.45;53.72;99933.00;10382533;28;20327;-69
2023/08/12 03:00:13;;;;;;;7.82;5.82;;;;;;;22.03;55.35;99903.78;10386190;28;20236;-69
2023/08/12 03:05:15;;;;;;;6.50;4.88;;;;;;;23.47;52.29;99904.72;10383829;28;20240;-69
2023/08/12 03:10:17;;;;;;;6.97;5.07;;;;;;;21.95;55.01;99940.50;10383900;28;20315;-66
2023/08/12 03:15:19;;;;;;;5.70;4.68;;;;;;;22.22;54.99;99887.88;10383592;28;20350;-68
2023/08/12 03:20:20;;;;;;;6.40;4.90;;;;;;;22.55;53.92;99891.41;10385971;28;20907;-67
2023/08/12 03:25:22;;;;;;;6.43;4.55;;;;;;;21.33;55.61;99925.28;10382463;28;20313;-68
2023/08/12 03:30:24;;;;;;;8.23;4.68;;;;;;;22.03;54.81;99878.44;10381914;28;20259;-67
2023/08/12 03:35:26;;;;;;;7.80;5.05;;;;;;;21.99;54.67;99891.75;10384857;28;20316;-66
2023/08/12 03:40:28;;;;;;;5.68;4.05;;;;;;;22.10;54.01;99926.19;10385260;28;20236;-67
2023/08/12 03:45:29;;;;;;;5.95;4.05;;;;;;;22.57;53.11;99900.16;10387775;28;20629;-67
2023/08/12 03:50:34;;;;;;;5.53;4.20;;;;;;;22.73;53.02;99903.81;10395341;28;20749;-68
2023/08/12 03:55:36;;;;;;;4.50;4.10;;;;;;;23.59;50.88;99916.22;10393416;28;20323;-66
2023/08/12 04:00:42;;;;;;;5.45;4.30;;;;;;;22.74;53.10;99915.53;10395644;28;20233;-68
2023/08/12 04:05:49;;;;;;;5.75;4.60;;;;;;;22.12;53.47;99962.19;10391888;28;20232;-68
2023/08/12 04:10:51;;;;;;;9.20;4.60;;;;;;;22.77;52.15;99929.47;10391938;28;20287;-69
2023/08/12 04:15:53;;;;;;;7.47;4.57;;;;;;;22.01;54.38;99925.00;10393287;28;20272;-68
2023/08/12 04:20:55;;;;;;;5.43;4.40;;;;;;;22.23;53.86;99905.03;10392395;28;20320;-68
2023/08/12 04:25:57;;;;;;;4.75;4.15;;;;;;;20.94;56.54;99925.34;10388316;28;20259;-67
2023/08/12 04:30:58;;;;;;;5.30;4.55;;;;;;;21.89;54.16;99924.31;10392589;28;20316;-68
2023/08/12 04:36:00;;;;;;;6.30;4.57;;;;;;;21.94;54.44;99922.50;10391180;28;20240;-67
2023/08/12 04:41:02;;;;;;;5.30;4.80;;;;;;;22.26;53.92;99882.72;10392566;28;20618;-68
2023/08/12 04:46:04;;;;;;;5.75;4.63;;;;;;;22.85;51.91;99907.13;10390732;28;20716;-67
2023/08/12 04:51:06;;;;;;;5.43;4.07;;;;;;;22.81;52.45;99914.22;10390635;28;20235;-68
2023/08/12 04:56:08;;;;;;;6.05;4.35;;;;;;;22.28;54.42;99878.63;10395306;28;20237;-68
2023/08/12 05:01:10;;;;;;;7.20;4.35;;;;;;;22.51;53.18;99909.38;10391749;28;20244;-68
2023/08/12 05:06:12;;;;;;;6.47;4.25;;;;;;;23.08;52.09;99891.47;10393403;28;20316;-67
2023/08/12 05:11:13;;;;;;;4.40;4.00;;;;;;;24.25;49.75;99865.53;10389718;28;20243;-67
2023/08/12 05:16:15;;;;;;;4.53;4.00;;;;;;;24.20;49.93;99890.13;10392990;28;20236;-68
2023/08/12 05:21:17;;;;;;;5.05;4.10;;;;;;;22.49;53.12;99908.81;10391062;28;20233;-67
2023/08/12 05:26:20;;;;;;;6.10;4.10;;;;;;;24.42;49.45;99881.63;10392206;28;20232;-66
2023/08/12 05:31:22;;;;;;;4.38;3.95;;;;;;;25.08;48.44;99899.84;10391828;28;20659;-66
2023/08/12 05:36:23;;;;;;;4.65;3.60;;;;;;;24.60;49.15;99915.81;10387710;28;20237;-68
2023/08/12 05:41:25;;;;;;;5.03;3.95;;;;;;;23.59;51.52;99921.69;10386572;28;20641;-67
2023/08/12 05:46:27;;;;;;;6.15;4.40;;;;;;;24.31;50.03;99902.72;10389752;28;20259;-67
2023/08/12 05:51:28;;;;;;;7.07;4.15;;;;;;;24.16;50.56;99908.19;10390506;28;20310;-67
2023/08/12 05:56:31;;;;;;;5.47;3.67;;;;;;;22.88;53.38;99925.72;10387000;28;20221;-68
2023/08/12 06:01:33;;;;;;;5.95;3.85;;;;;;;24.45;50.04;99897.50;10387186;28;20599;-67
2023/08/12 06:06:35;;;;;;;7.50;4.00;;;;;;;24.58;50.58;99879.72;10384880;28;20267;-67
2023/08/12 06:11:36;;;;;;;5.45;3.83;;;;;;;24.25;50.96;99892.88;10384635;28;20313;-67
2023/08/12 06:16:38;;;;;;;5.38;4.10;;;;;;;24.24;51.33;99885.78;10388359;28;20321;-66
2023/08/12 06:21:40;;;;;;;7.15;3.83;;;;;;;24.81;50.19;99891.19;10388871;28;20600;-69
2023/08/12 06:26:41;;;;;;;4.82;3.85;;;;;;;25.64;48.81;99870.56;10385956;28;20264;-67
2023/08/12 06:31:43;;;;;;;6.97;3.85;;;;;;;24.02;52.08;99909.78;10388934;28;20310;-66
2023/08/12 06:36:45;;;;;;;5.50;4.15;;;;;;;24.62;50.65;99883.53;10386491;28;20232;-66
2023/08/12 06:41:47;;;;;;;5.35;4.75;;;;;;;24.81;49.28;99902.13;10385299;28;20793;-66
2023/08/12 06:46:49;;;;;;;9.70;4.18;;;;;;;24.10;51.45;99911.97;10384697;28;20228;-68
2023/08/12 06:51:51;;;;;;;5.47;3.72;;;;;;;24.79;50.53;99861.34;10387538;28;20232;-67
2023/08/12 06:56:53;;;;;;;5.57;4.05;;;;;;;25.44;49.39;99857.81;10377982;28;20239;-66
2023/08/12 07:01:55;;;;;;;4.68;3.97;;;;;;;25.23;49.66;99873.53;10379061;28;20337;-67
2023/08/12 07:06:56;;;;;;;6.15;3.80;;;;;;;25.32;49.61;99871.84;10381149;28;20228;-68
2023/08/12 07:11:58;;;;;;;5.97;4.32;;;;;;;25.53;48.58;99883.50;10381083;28;20326;-66
2023/08/12 07:17:00;;;;;;;5.65;3.55;;;;;;;25.45;49.61;99884.09;10380428;28;20248;-65
2023/08/12 07:22:02;;;;;;;6.10;3.97;;;;;;;24.69;51.87;99844.97;10390307;28;20790;-66
2023/08/12 07:27:04;;;;;;;7.15;4.35;;;;;;;24.49;52.29;99863.03;10389613;28;20240;-67
2023/08/12 07:32:08;;;;;;;5.68;3.90;;;;;;;24.81;51.51;99850.94;10391694;28;20232;-67
2023/08/12 07:37:10;;;;;;;6.38;4.10;;;;;;;24.98;50.99;99869.75;10408111;28;20319;-68
2023/08/12 07:42:12;;;;;;;4.55;3.63;;;;;;;25.35;49.62;99889.63;10394344;28;20326;-68
2023/08/12 07:47:15;;;;;;;5.35;3.63;;;;;;;25.06;50.76;99896.56;10394318;28;20322;-66
2023/08/12 07:52:16;;;;;;;6.03;4.45;;;;;;;25.45;50.29;99871.22;10392204;28;20262;-66
2023/08/12 07:57:20;;;;;;;5.78;4.18;;;;;;;25.26;49.98;99892.16;10393048;28;20315;-68
2023/08/12 08:02:22;;;;;;;10.77;4.45;;;;;;;25.66;49.50;99873.84;10392585;28;20260;-67
2023/08/12 08:07:23;;;;;;;7.80;4.65;;;;;;;24.66;51.39;99870.09;10393219;28;20238;-67
2023/08/12 08:12:25;;;;;;;6.95;4.10;;;;;;;25.80;50.22;99852.94;10389632;28;20776;-67
2023/08/12 08:17:27;;;;;;;6.18;3.72;;;;;;;25.95;50.09;99849.25;10387529;28;20586;-67
2023/08/12 08:22:31;;;;;;;4.85;3.70;;;;;;;24.82;52.00;99870.94;10383528;28;20256;-67
2023/08/12 08:27:33;;;;;;;9.32;4.53;;;;;;;25.98;49.65;99859.66;10386595;28;20266;-67
2023/08/12 08:32:35;;;;;;;5.95;4.20;;;;;;;23.88;51.87;99888.44;10387676;28;20295;-67
2023/08/12 08:37:36;;;;;;;6.22;3.80;;;;;;;26.38;48.98;99834.91;10390298;28;20224;-67
2023/08/12 08:42:40;;;;;;;8.70;4.15;;;;;;;26.50;49.27;99834.50;10390074;28;20233;-68
2023/08/12 08:47:42;;;;;;;5.07;3.72;;;;;;;26.90;48.79;99824.19;10391508;28;20762;-65
2023/08/12 08:52:45;;;;;;;4.75;3.35;;;;;;;27.36;47.59;99839.28;10390274;28;20267;-65
2023/08/12 08:57:47;;;;;;;6.28;3.65;;;;;;;26.50;48.52;99873.75;10389367;28;20981;-65
2023/08/12 09:02:50;;;;;;;4.45;3.40;;;;;;;26.19;49.09;99854.81;10391739;28;20263;-65
2023/08/12 09:07:54;;;;;;;6.07;3.88;;;;;;;26.31;49.06;99853.63;10389836;28;20275;-66
2023/08/12 09:12:56;;;;;;;9.52;4.22;;;;;;;25.92;49.11;99863.53;10391927;28;21047;-67
2023/08/12 09:17:58;;;;;;;7.68;4.43;;;;;;;26.52;48.64;99855.06;10389847;28;20247;-67
2023/08/12 09:23:02;;;;;;;20.27;5.10;;;;;;;26.62;48.52;99856.06;10391472;28;20244;-66
2023/08/12 09:28:04;;;;;;;8.50;3.97;;;;;;;26.79;47.90;99845.47;10389815;28;20241;-65
2023/08/12 09:33:08;;;;;;;5.60;3.92;;;;;;;27.17;49.19;99845.53;10388502;28;20237;-65
2023/08/12 09:38:13;;;;;;;6.88;3.72;;;;;;;27.16;48.49;99841.19;10390775;28;20318;-67
2023/08/12 09:43:16;;;;;;;3.83;3.30;;;;;;;26.90;47.97;99833.25;10383658;28;20240;-66
2023/08/12 09:48:18;;;;;;;4.07;3.40;;;;;;;27.22;47.50;99856.47;10388004;28;20270;-66
2023/08/12 09:53:22;;;;;;;4.32;3.33;;;;;;;26.39;48.71;99850.28;10389777;28;20334;-66
2023/08/12 09:58:25;;;;;;;4.60;3.67;;;;;;;26.74;48.29;99854.59;10388326;28;20664;-65
2023/08/12 10:03:28;;;;;;;3.53;3.15;;;;;;;27.08;47.78;99842.63;10388788;28;20252;-66
2023/08/12 10:08:32;;;;;;;5.72;3.38;;;;;;;27.77;46.72;99839.50;10385633;28;20233;-66
2023/08/12 10:13:34;;;;;;;5.72;3.50;;;;;;;27.18;46.36;99860.09;10385568;28;20355;-66
2023/08/12 10:18:42;;;;;;;7.35;3.42;;;;;;;27.51;46.45;99841.78;10389739;28;20335;-66
2023/08/12 10:23:45;;;;;;;3.92;3.20;;;;;;;27.19;46.50;99875.47;10387994;28;20248;-66
2023/08/12 10:28:49;;;;;;;4.20;3.45;;;;;;;26.94;47.43;99908.44;10387078;28;20239;-66
2023/08/12 10:33:53;;;;;;;8.50;4.28;;;;;;;25.69;49.03;99916.28;10388251;28;20233;-66
2023/08/12 10:38:56;;;;;;;4.60;3.50;;;;;;;25.57;49.90;99878.28;10389340;28;20221;-68
2023/08/12 10:44:04;;;;;;;6.07;3.95;;;;;;;25.74;51.29;99848.59;10387668;28;20319;-66
2023/08/12 10:49:09;;;;;;;7.45;4.65;;;;;;;25.91;53.29;99848.22;10389599;28;20279;-66
2023/08/12 10:54:31;;;;;;;6.93;4.60;;;;;;;26.44;52.08;99833.75;10385963;28;21020;-67
2023/08/12 10:59:44;;;;;;;7.72;4.72;;;;;;;26.17;52.11;99845.25;10389269;28;20224;-67
2023/08/12 11:06:19;;;;;;;7.60;5.72;;;;;;;26.32;52.65;99845.13;10494620;27;2030026;-66
2023/08/12 11:11:23;;;;;;;6.50;5.47;;;;;;;26.28;53.41;99855.03;10496979;28;20234;-67
2023/08/12 11:16:37;;;;;;;7.68;5.30;;;;;;;27.91;51.43;99817.56;10504848;28;20242;-66
2023/08/12 11:21:40;;;;;;;6.82;5.20;;;;;;;25.46;55.51;99891.22;10511955;28;20241;-67
2023/08/12 11:26:42;;;;;;;5.85;4.15;;;;;;;25.66;54.29;99854.66;10510089;28;20235;-67
2023/08/12 11:31:44;;;;;;;4.43;3.22;;;;;;;26.10;52.28;99859.28;10509504;28;20214;-68
2023/08/12 11:36:46;;;;;;;5.22;3.28;;;;;;;26.54;52.55;99882.22;10513170;28;20324;-67
2023/08/12 11:41:48;;;;;;;5.75;2.75;;;;;;;26.36;52.13;99857.13;10513162;28;20242;-67
2023/08/12 11:46:50;;;;;;;6.90;4.30;;;;;;;26.55;53.21;99873.72;10509999;28;20326;-67
2023/08/12 11:51:52;;;;;;;5.82;4.63;;;;;;;26.65;53.53;99850.81;10506437;28;20879;-67
2023/08/12 11:56:54;;;;;;;7.78;5.32;;;;;;;26.79;54.34;99855.63;10510545;28;20816;-66
2023/08/12 12:01:55;;;;;;;6.82;4.93;;;;;;;26.09;55.29;99852.16;10509323;28;20218;-66
2023/08/12 12:06:59;;;;;;;7.50;6.20;;;;;;;26.55;54.79;99827.06;10507824;28;20226;-66
2023/08/12 12:12:01;;;;;;;12.18;5.97;;;;;;;25.82;55.98;99842.50;10510602;28;20678;-66
2023/08/12 12:17:07;;;;;;;7.30;5.00;;;;;;;25.68;55.16;99835.22;10483504;28;20318;-66
2023/08/12 12:22:09;;;;;;;7.75;5.07;;;;;;;25.99;54.56;99858.53;10526742;28;20227;-66
2023/08/12 12:27:13;;;;;;;5.90;5.30;;;;;;;26.05;55.79;99856.59;10494978;28;20259;-66
2023/08/12 12:32:18;;;;;;;5.40;4.50;;;;;;;26.68;52.91;99844.72;10515273;28;20236;-67
2023/08/12 12:37:20;;;;;;;8.30;5.10;;;;;;;26.55;52.92;99850.91;10490692;28;20837;-66
2023/08/12 12:42:22;;;;;;;5.07;4.22;;;;;;;26.95;52.09;99846.91;10494447;28;20311;-66
2023/08/12 12:47:24;;;;;;;6.22;4.88;;;;;;;26.82;52.03;99861.34;10522666;28;20271;-66
2023/08/12 12:52:25;;;;;;;6.03;4.55;;;;;;;27.07;51.22;99865.69;10520215;28;20253;-66
2023/08/12 12:57:27;;;;;;;7.57;4.03;;;;;;;26.97;50.13;99873.25;10515322;28;20238;-66
2023/08/12 13:02:29;;;;;;;5.05;3.92;;;;;;;27.11;50.61;99868.72;10502218;28;20230;-66
2023/08/12 13:07:31;;;;;;;4.13;3.60;;;;;;;27.18;50.05;99868.34;10494661;28;20230;-66
2023/08/12 13:12:33;;;;;;;5.30;3.80;;;;;;;26.95;50.46;99874.38;10504413;28;20269;-66
2023/08/12 13:17:34;;;;;;;9.20;4.22;;;;;;;26.97;51.01;99876.00;10512244;28;20238;-66
2023/08/12 13:22:36;;;;;;;5.05;4.00;;;;;;;26.98;49.62;99881.22;10515327;28;20359;-66
2023/08/12 13:27:38;;;;;;;8.85;4.13;;;;;;;27.20;50.53;99858.69;10520552;28;20240;-66
2023/08/12 13:32:40;;;;;;;5.18;3.80;;;;;;;27.05;49.97;99850.66;10507706;28;20300;-66
2023/08/12 13:37:41;;;;;;;5.32;3.58;;;;;;;27.71;49.13;99845.38;10505981;28;20717;-66
2023/08/12 13:42:45;;;;;;;5.50;3.67;;;;;;;27.53;49.13;99831.34;10472369;28;20238;-66
2023/08/12 13:47:47;;;;;;;5.03;3.65;;;;;;;27.16;49.67;99835.69;10498065;28;20241;-66
2023/08/12 13:52:50;;;;;;;5.28;3.63;;;;;;;26.64;50.16;99860.16;10514481;28;20713;-65
2023/08/12 13:57:53;;;;;;;5.57;4.07;;;;;;;27.38;48.59;99821.41;10517600;28;20227;-66
2023/08/12 14:02:55;;;;;;;5.55;3.85;;;;;;;26.38;50.63;99826.69;10514958;28;20246;-65
2023/08/12 14:07:56;;;;;;;3.97;3.38;;;;;;;27.48;49.11;99821.25;10514586;28;20227;-66
2023/08/12 14:12:58;;;;;;;4.75;3.80;;;;;;;26.43;50.78;99862.28;10511192;28;20230;-66
2023/08/12 14:18:00;;;;;;;6.60;4.63;;;;;;;24.40;56.98;99803.72;10480393;28;20243;-67
2023/08/12 14:23:02;;;;;;;7.50;4.25;;;;;;;23.96;60.50;99769.59;10493587;28;20277;-68
2023/08/12 14:28:04;;;;;;;7.63;3.20;;;;;;;21.27;63.41;99789.44;10495750;28;20226;-67
2023/08/12 14:33:06;;;;;;;4.20;2.80;;;;;;;23.33;58.55;99833.44;10503060;28;20233;-67
2023/08/12 14:38:08;;;;;;;3.72;2.58;;;;;;;26.22;51.58;99812.31;10495755;28;20789;-67
2023/08/12 14:43:10;;;;;;;3.40;2.83;;;;;;;25.49;53.38;99879.72;10481390;28;20333;-70
2023/08/12 14:48:12;;;;;;;3.97;3.10;;;;;;;24.47;56.44;99839.81;10461508;28;20733;-67
2023/08/12 14:53:13;;;;;;;3.05;2.38;;;;;;;23.94;56.81;99854.59;10512744;28;20230;-65
2023/08/12 14:58:15;;;;;;;3.35;2.10;;;;;;;24.33;56.83;99859.50;10510711;28;20233;-65
2023/08/12 15:03:17;;;;;;;2.90;2.30;;;;;;;23.47;58.50;99874.69;10508345;28;20301;-65
2023/08/12 15:08:19;;;;;;;3.28;2.13;;;;;;;24.30;58.06;99827.25;10508459;28;20917;-65
2023/08/12 15:13:21;;;;;;;3.45;2.30;;;;;;;23.97;58.42;99837.66;10509762;28;20368;-65
2023/08/12 15:18:24;;;;;;;3.28;2.80;;;;;;;25.22;55.30;99815.22;10515256;28;20234;-65
2023/08/12 15:23:25;;;;;;;4.88;3.03;;;;;;;25.05;54.27;99877.69;10512222;28;20222;-65
2023/08/12 15:28:27;;;;;;;3.58;2.47;;;;;;;27.23;50.42;99880.09;10507302;28;20235;-65
2023/08/12 15:33:29;;;;;;;4.20;2.85;;;;;;;26.29;50.44;99929.91;10511457;28;20584;-65
2023/08/12 15:38:31;;;;;;;4.55;2.92;;;;;;;25.24;52.39;99938.16;10505996;28;20609;-67
2023/08/12 15:43:33;;;;;;;3.92;2.92;;;;;;;26.34;50.89;99880.50;10507670;28;20325;-67
2023/08/12 15:48:35;;;;;;;5.00;3.10;;;;;;;26.76;51.05;99898.22;10507707;28;20230;-69
2023/08/12 15:53:36;;;;;;;4.93;2.80;;;;;;;25.70;52.38;99948.88;10515012;28;20241;-67
2023/08/12 15:58:39;;;;;;;6.07;4.50;;;;;;;25.41;51.61;99929.59;10519932;28;20234;-66
2023/08/12 16:03:40;;;;;;;4.28;3.22;;;;;;;24.78;52.00;99925.41;10519302;28;20248;-66
2023/08/12 16:08:42;;;;;;;5.93;3.38;;;;;;;25.81;50.94;99912.13;10518936;28;20222;-67
2023/08/12 16:13:47;;;;;;;3.58;2.97;;;;;;;25.66;50.25;99915.75;10519854;28;20248;-66
2023/08/12 16:18:49;;;;;;;4.88;2.70;;;;;;;26.40;48.80;99906.75;10523536;28;20230;-67
2023/08/12 16:23:51;;;;;;;4.43;2.83;;;;;;;26.52;49.95;99903.66;10518897;28;20234;-65
2023/08/12 16:28:53;;;;;;;4.72;2.60;;;;;;;25.89;50.81;99943.59;10519243;28;20507;-67
2023/08/12 16:33:54;;;;;;;6.20;2.60;;;;;;;25.82;51.58;99927.47;10519757;28;20234;-66
2023/08/12 16:38:56;;;;;;;4.88;2.67;;;;;;;26.07;51.14;99909.19;10520206;28;20317;-65
2023/08/12 16:43:58;;;;;;;3.78;2.80;;;;;;;26.44;50.65;99905.09;10519526;28;20325;-67
2023/08/12 16:48:59;;;;;;;3.85;3.15;;;;;;;25.51;54.42;99895.84;10519263;28;20226;-67
2023/08/12 16:54:01;;;;;;;3.95;3.00;;;;;;;25.00;55.85;99880.44;10516224;28;20244;-65
2023/08/12 16:59:03;;;;;;;4.90;3.15;;;;;;;25.90;53.93;99875.91;10521410;28;20225;-66
2023/08/12 17:04:11;;;;;;;5.50;3.10;;;;;;;25.57;54.35;99894.72;10519080;28;20231;-67
2023/08/12 17:09:13;;;;;;;4.60;2.83;;;;;;;25.35;53.85;99901.41;10518076;28;20314;-66
2023/08/12 17:14:17;;;;;;;4.88;2.80;;;;;;;24.69;54.97;99925.13;10516925;28;20321;-66
2023/08/12 17:19:19;;;;;;;6.95;3.13;;;;;;;25.73;53.50;99918.22;10516065;28;20242;-66
2023/08/12 17:24:21;;;;;;;4.30;3.20;;;;;;;25.87;52.95;99909.38;10512943;28;20647;-65
2023/08/12 17:29:23;;;;;;;4.40;3.17;;;;;;;25.38;54.21;99908.25;10518055;28;20230;-67
2023/08/12 17:34:25;;;;;;;4.22;3.15;;;;;;;25.35;54.63;99911.53;10519905;28;20283;-67
2023/08/12 17:39:26;;;;;;;4.82;2.90;;;;;;;25.70;53.65;99894.09;10517808;28;20226;-66
2023/08/12 17:44:29;;;;;;;5.32;2.95;;;;;;;25.69;53.63;99897.09;10517317;28;20321;-66
2023/08/12 17:49:31;;;;;;;4.32;3.33;;;;;;;25.07;54.76;99914.63;10475583;28;20349;-66
2023/08/12 17:54:32;;;;;;;4.57;3.40;;;;;;;24.30;55.70;99944.81;10489623;28;20231;-65
2023/08/12 17:59:34;;;;;;;3.95;3.28;;;;;;;26.08;52.77;99888.91;10491496;28;20292;-66
2023/08/12 18:04:36;;;;;;;4.65;3.20;;;;;;;25.73;53.12;99917.41;10503171;28;20333;-66
2023/08/12 18:09:37;;;;;;;5.13;3.35;;;;;;;26.58;51.49;99914.25;10452263;28;20219;-66
2023/08/12 18:14:39;;;;;;;4.88;3.00;;;;;;;24.91;55.10;99938.47;10454667;28;20603;-65
2023/08/12 18:19:41;;;;;;;4.72;3.20;;;;;;;26.75;51.23;99891.06;10470642;28;20314;-66
2023/08/12 18:24:43;;;;;;;5.05;3.28;;;;;;;27.07;50.35;99895.09;10451421;28;20236;-66
2023/08/12 18:29:44;;;;;;;4.55;3.30;;;;;;;27.28;50.18;99912.19;10447650;28;20592;-66
2023/08/12 18:34:46;;;;;;;6.57;3.08;;;;;;;26.48;51.37;99941.78;10469727;28;20259;-66
2023/08/12 18:39:48;;;;;;;4.00;3.00;;;;;;;26.06;52.45;99939.66;10465881;28;20299;-66
2023/08/12 18:44:49;;;;;;;4.35;3.28;;;;;;;25.71;52.42;99977.94;10433307;28;21919;-65
2023/08/12 18:49:51;;;;;;;4.05;2.92;;;;;;;25.95;51.92;99952.63;10433148;28;20310;-66
2023/08/12 18:54:53;;;;;;;4.68;2.83;;;;;;;25.10;53.58;99963.34;10429574;28;20263;-67
2023/08/12 18:59:55;;;;;;;4.10;3.40;;;;;;;25.03;53.94;99968.28;10432469;28;20234;-66
2023/08/12 19:04:57;;;;;;;4.18;3.03;;;;;;;25.06;53.78;99951.31;10437687;28;20737;-66
2023/08/12 19:09:58;;;;;;;5.38;3.45;;;;;;;24.54;54.95;99972.44;10488845;28;20231;-66
2023/08/12 19:15:00;;;;;;;4.60;3.33;;;;;;;24.43;55.14;99969.97;10479655;28;20234;-66
2023/08/12 19:20:03;;;;;;;4.35;3.50;;;;;;;24.25;55.71;99980.34;10487696;28;20219;-66
2023/08/12 19:25:05;;;;;;;4.80;3.58;;;;;;;24.40;55.95;99973.28;10481008;28;20258;-66
2023/08/12 19:30:07;;;;;;;5.65;3.85;;;;;;;24.50;55.71;99982.28;10502377;28;20305;-66
2023/08/12 19:35:09;;;;;;;5.25;3.97;;;;;;;24.43;56.49;99972.69;10499590;28;20587;-66
2023/08/12 19:40:13;;;;;;;6.45;4.78;;;;;;;23.45;58.25;99995.09;10510503;28;20649;-66
2023/08/12 19:45:15;;;;;;;3.95;3.42;;;;;;;22.59;58.76;100004.34;10508123;28;20226;-66
2023/08/12 19:50:16;;;;;;;5.95;3.08;;;;;;;23.54;57.17;99972.75;10505496;28;20393;-66
2023/08/12 19:55:18;;;;;;;4.43;3.03;;;;;;;23.14;57.44;99988.66;10477365;28;20412;-66
2023/08/12 20:00:20;;;;;;;3.55;2.70;;;;;;;23.67;56.40;99961.34;10478502;28;20373;-66
2023/08/12 20:05:22;;;;;;;4.22;2.72;;;;;;;22.50;57.69;100009.47;10482578;28;20235;-66
2023/08/12 20:10:24;;;;;;;5.95;3.00;;;;;;;23.23;57.00;99994.47;10482016;28;20257;-66
2023/08/12 20:15:27;;;;;;;4.00;2.92;;;;;;;22.81;57.20;100012.44;10478894;28;20231;-68
2023/08/12 20:20:28;;;;;;;2.63;2.38;;;;;;;23.14;56.61;100001.47;10477332;28;20239;-68
2023/08/12 20:25:30;;;;;;;3.70;2.78;;;;;;;24.02;54.34;99998.03;10478176;28;20242;-68
2023/08/12 20:30:33;;;;;;;4.57;2.55;;;;;;;23.82;54.46;100012.50;10476343;28;20257;-68
2023/08/12 20:35:35;;;;;;;4.20;2.70;;;;;;;24.02;54.18;100011.72;10476472;28;20231;-68
2023/08/12 20:40:37;;;;;;;2.95;2.28;;;;;;;24.41;53.42;100016.75;10469050;28;20304;-68
2023/08/12 20:45:39;;;;;;;4.32;2.42;;;;;;;24.37;53.08;100010.16;10477612;28;20314;-67
2023/08/12 20:50:40;;;;;;;4.18;2.25;;;;;;;24.36;52.83;100014.81;10477327;28;20325;-68
2023/08/12 20:55:42;;;;;;;3.08;2.80;;;;;;;24.81;52.44;100017.03;10477603;28;20746;-67
2023/08/12 21:00:44;;;;;;;3.35;2.17;;;;;;;25.43;51.02;99996.66;10472159;28;20235;-68
2023/08/12 21:05:52;;;;;;;3.72;2.80;;;;;;;24.98;51.83;100011.28;10475810;28;20234;-68
2023/08/12 21:10:54;;;;;;;4.45;2.85;;;;;;;24.89;52.12;100028.25;10471962;28;20228;-67
2023/08/12 21:15:56;;;;;;;4.78;2.92;;;;;;;24.56;52.95;100010.44;10471850;28;20660;-66
2023/08/12 21:20:58;;;;;;;4.70;3.13;;;;;;;23.75;53.60;100050.16;10471355;28;20242;-66
2023/08/12 21:25:59;;;;;;;5.40;2.85;;;;;;;24.54;53.00;100020.84;10469005;28;20281;-66
2023/08/12 21:31:01;;;;;;;3.80;3.40;;;;;;;24.15;53.41;100035.81;10474542;28;20312;-66
2023/08/12 21:36:03;;;;;;;5.30;3.35;;;;;;;23.97;53.79;100052.69;10472300;28;20668;-66
2023/08/12 21:41:04;;;;;;;7.90;3.22;;;;;;;24.78;52.50;100036.75;10471071;28;20340;-66
2023/08/12 21:46:06;;;;;;;5.60;3.53;;;;;;;24.98;51.56;100052.34;10470097;28;20243;-67
2023/08/12 21:51:08;;;;;;;6.60;3.65;;;;;;;25.37;51.17;100030.69;10469207;28;20237;-67
2023/08/12 21:56:10;;;;;;;5.63;3.80;;;;;;;24.31;52.78;100055.84;10470729;28;20231;-67
2023/08/12 22:01:12;;;;;;;5.53;3.67;;;;;;;24.98;51.88;100033.19;10466791;28;20717;-66
2023/08/12 22:06:14;;;;;;;5.07;3.42;;;;;;;25.40;51.32;100021.06;10459369;28;20238;-66
2023/08/12 22:11:16;;;;;;;4.18;3.10;;;;;;;25.37;51.28;100040.78;10472047;28;20227;-66
2023/08/12 22:16:18;;;;;;;7.72;3.65;;;;;;;24.73;51.98;100045.75;10470976;28;20244;-67
2023/08/12 22:21:20;;;;;;;7.05;3.47;;;;;;;24.63;52.28;100035.63;10473198;28;20223;-68
2023/08/12 22:26:22;;;;;;;5.30;3.50;;;;;;;24.35;52.73;100024.09;10469740;28;20242;-67
2023/08/12 22:31:24;;;;;;;5.32;3.25;;;;;;;24.57;52.34;100012.09;10471124;28;20246;-67
2023/08/12 22:36:26;;;;;;;5.07;3.53;;;;;;;24.47;53.08;100020.31;10467268;28;20750;-67
2023/08/12 22:41:27;;;;;;;5.15;3.88;;;;;;;23.88;54.21;100016.06;10469471;28;20227;-67
2023/08/12 22:46:29;;;;;;;5.63;3.90;;;;;;;23.37;55.52;100012.00;10470119;28;20753;-69
2023/08/12 22:51:31;;;;;;;5.68;3.50;;;;;;;23.56;54.83;100009.59;10470079;28;20230;-69
2023/08/12 22:56:37;;;;;;;5.28;4.22;;;;;;;24.57;52.80;99981.19;10466054;28;20723;-69
2023/08/12 23:01:39;;;;;;;3.85;3.53;;;;;;;24.79;51.88;99995.44;10474975;28;20234;-68
2023/08/12 23:06:40;;;;;;;6.10;3.70;;;;;;;24.14;52.91;100019.66;10475323;28;20617;-68
2023/08/12 23:11:42;;;;;;;6.93;4.53;;;;;;;24.35;53.46;99999.50;10476540;28;20222;-68
2023/08/12 23:16:44;;;;;;;6.53;4.65;;;;;;;25.09;51.75;99977.31;10476113;28;20702;-68
2023/08/12 23:21:46;;;;;;;5.45;4.00;;;;;;;24.97;51.32;99980.34;10472879;28;20654;-68
2023/08/12 23:26:47;;;;;;;9.88;4.97;;;;;;;22.80;56.24;99994.41;10475159;28;20313;-68